createdAt,value
2024-05-09T00:00:22.154Z,100305.47
2024-05-09T00:01:29.783Z,100306.31
2024-05-09T00:02:32.933Z,100300.25
2024-05-09T00:03:36.032Z,100302.88
2024-05-09T00:04:39.766Z,100295.03
2024-05-09T00:05:44.074Z,100298.69
2024-05-09T00:06:50.643Z,100305.00
2024-05-09T00:07:53.552Z,100301.81
2024-05-09T00:08:56.524Z,100306.34
2024-05-09T00:09:59.455Z,100299.31
2024-05-09T00:11:03.074Z,100308.00
2024-05-09T00:12:06.466Z,100301.78
2024-05-09T00:13:11.260Z,100313.88
2024-05-09T00:14:14.447Z,100309.44
2024-05-09T00:15:17.425Z,100300.63
2024-05-09T00:16:20.573Z,100303.94
2024-05-09T00:17:24.724Z,100303.94
2024-05-09T00:18:27.811Z,100296.94
2024-05-09T00:19:30.807Z,100296.25
2024-05-09T00:20:38.923Z,100293.56
2024-05-09T00:21:44.654Z,100296.31
2024-05-09T00:22:48.381Z,100304.38
2024-05-09T00:23:51.940Z,100301.13
2024-05-09T00:24:57.032Z,100295.06
2024-05-09T00:26:00.098Z,100298.44
2024-05-09T00:27:03.076Z,100296.59
2024-05-09T00:28:06.711Z,100302.88
2024-05-09T00:29:09.677Z,100293.56
2024-05-09T00:30:17.838Z,100302.38
2024-05-09T00:31:27.630Z,100297.03
2024-05-09T00:32:31.350Z,100299.66
2024-05-09T00:33:35.204Z,100306.69
2024-05-09T00:34:38.203Z,100296.34
2024-05-09T00:35:41.688Z,100315.56
2024-05-09T00:36:44.713Z,100311.31
2024-05-09T00:37:47.822Z,100299.00
2024-05-09T00:38:54.289Z,100311.00
2024-05-09T00:39:57.280Z,100311.78
2024-05-09T00:41:02.866Z,100308.09
2024-05-09T00:42:05.854Z,100298.09
2024-05-09T00:43:08.980Z,100307.72
2024-05-09T00:44:11.964Z,100314.88
2024-05-09T00:45:15.508Z,100308.00
2024-05-09T00:46:18.933Z,100300.38
2024-05-09T00:47:22.365Z,100307.59
2024-05-09T00:48:27.272Z,100308.47
2024-05-09T00:49:30.501Z,100316.38
2024-05-09T00:50:37.127Z,100321.41
2024-05-09T00:51:42.538Z,100312.03
2024-05-09T00:52:47.655Z,100323.66
2024-05-09T00:53:50.626Z,100319.28
2024-05-09T00:54:56.336Z,100313.97
2024-05-09T00:55:59.815Z,100314.91
2024-05-09T00:57:04.969Z,100323.41
2024-05-09T00:58:11.094Z,100325.91
2024-05-09T00:59:14.147Z,100320.56
2024-05-09T01:00:26.506Z,100323.09
2024-05-09T01:01:35.205Z,100320.06
2024-05-09T01:02:40.426Z,100327.81
2024-05-09T01:03:44.311Z,100321.66
2024-05-09T01:04:48.896Z,100326.75
2024-05-09T01:05:52.452Z,100317.13
2024-05-09T01:06:55.428Z,100323.09
2024-05-09T01:07:58.504Z,100318.66
2024-05-09T01:09:01.423Z,100311.59
2024-05-09T01:10:07.152Z,100315.09
2024-05-09T01:11:16.371Z,100313.28
2024-05-09T01:12:19.453Z,100312.53
2024-05-09T01:13:22.449Z,100305.84
2024-05-09T01:14:25.513Z,100306.75
2024-05-09T01:15:28.572Z,100306.91
2024-05-09T01:16:32.136Z,100304.22
2024-05-09T01:17:35.257Z,100316.38
2024-05-09T01:18:38.423Z,100314.53
2024-05-09T01:19:41.842Z,100306.97
2024-05-09T01:20:45.637Z,100304.44
2024-05-09T01:21:48.728Z,100308.91
2024-05-09T01:22:54.323Z,100311.47
2024-05-09T01:23:57.304Z,100306.97
2024-05-09T01:25:00.262Z,100307.72
2024-05-09T01:26:03.257Z,100308.56
2024-05-09T01:27:06.181Z,100308.53
2024-05-09T01:28:09.320Z,100307.81
2024-05-09T01:29:12.376Z,100314.91
2024-05-09T01:30:20.975Z,100308.16
2024-05-09T01:31:27.455Z,100307.34
2024-05-09T01:32:30.538Z,100311.84
2024-05-09T01:33:33.798Z,100314.59
2024-05-09T01:34:36.814Z,100313.06
2024-05-09T01:35:41.786Z,100315.75
2024-05-09T01:36:45.749Z,100314.06
2024-05-09T01:37:48.758Z,100316.63
2024-05-09T01:38:51.714Z,100321.91
2024-05-09T01:39:56.607Z,100315.00
2024-05-09T01:40:59.568Z,100312.22
2024-05-09T01:42:02.498Z,100316.63
2024-05-09T01:43:05.666Z,100318.38
2024-05-09T01:44:10.098Z,100307.84
2024-05-09T01:45:13.145Z,100318.25
2024-05-09T01:46:16.899Z,100315.00
2024-05-09T01:47:19.905Z,100311.56
2024-05-09T01:48:22.994Z,100315.88
2024-05-09T01:49:26.434Z,100318.34
2024-05-09T01:50:37.834Z,100317.41
2024-05-09T01:51:45.418Z,100315.66
2024-05-09T01:52:48.415Z,100314.00
2024-05-09T01:53:51.324Z,100305.47
2024-05-09T01:54:54.455Z,100311.63
2024-05-09T01:56:00.302Z,100315.00
2024-05-09T01:57:03.211Z,100318.53
2024-05-09T01:58:06.358Z,100318.66
2024-05-09T01:59:10.488Z,100309.13
2024-05-09T02:02:12.572Z,100309.22
2024-05-09T02:03:17.517Z,100303.81
2024-05-09T02:04:21.289Z,100307.47
2024-05-09T02:05:24.505Z,100311.81
2024-05-09T02:06:27.479Z,100316.34
2024-05-09T02:07:31.143Z,100311.28
2024-05-09T02:08:34.177Z,100309.59
2024-05-09T02:09:37.193Z,100309.63
2024-05-09T02:10:40.151Z,100316.56
2024-05-09T02:11:48.439Z,100312.22
2024-05-09T02:12:51.517Z,100316.44
2024-05-09T02:13:54.581Z,100318.09
2024-05-09T02:15:01.280Z,100312.13
2024-05-09T02:16:04.449Z,100315.53
2024-05-09T02:17:07.510Z,100320.75
2024-05-09T02:18:11.107Z,100311.22
2024-05-09T02:19:14.604Z,100322.41
2024-05-09T02:20:27.103Z,100319.94
2024-05-09T02:21:36.730Z,100317.31
2024-05-09T02:22:39.784Z,100312.22
2024-05-09T02:23:42.926Z,100317.38
2024-05-09T02:24:45.971Z,100312.16
2024-05-09T02:25:49.835Z,100311.31
2024-05-09T02:26:52.802Z,100317.47
2024-05-09T02:27:55.733Z,100313.97
2024-05-09T02:28:58.709Z,100317.44
2024-05-09T02:30:02.171Z,100318.47
2024-05-09T02:31:05.232Z,100318.41
2024-05-09T02:32:08.336Z,100320.16
2024-05-09T02:33:13.225Z,100333.16
2024-05-09T02:34:17.326Z,100318.28
2024-05-09T02:35:20.497Z,100318.22
2024-05-09T02:36:25.082Z,100319.00
2024-05-09T02:37:29.370Z,100322.34
2024-05-09T02:38:33.487Z,100317.91
2024-05-09T02:39:36.438Z,100308.41
2024-05-09T02:40:40.281Z,100305.72
2024-05-09T02:41:43.712Z,100305.66
2024-05-09T02:42:46.667Z,100303.91
2024-05-09T02:43:50.892Z,100300.41
2024-05-09T02:44:54.846Z,100301.16
2024-05-09T02:45:57.740Z,100307.25
2024-05-09T02:47:00.671Z,100300.28
2024-05-09T02:48:07.226Z,100294.09
2024-05-09T02:49:10.389Z,100295.84
2024-05-09T02:50:16.236Z,100291.53
2024-05-09T02:51:22.478Z,100293.28
2024-05-09T02:52:25.410Z,100283.72
2024-05-09T02:53:28.835Z,100283.91
2024-05-09T02:54:31.786Z,100285.88
2024-05-09T02:55:35.075Z,100288.59
2024-05-09T02:56:38.127Z,100287.81
2024-05-09T02:57:41.211Z,100280.94
2024-05-09T02:58:44.445Z,100288.72
2024-05-09T02:59:48.266Z,100286.13
2024-05-09T03:00:51.466Z,100289.66
2024-05-09T03:01:54.738Z,100293.19
2024-05-09T03:02:58.150Z,100297.56
2024-05-09T03:04:04.684Z,100292.25
2024-05-09T03:05:07.848Z,100296.56
2024-05-09T03:06:10.736Z,100290.41
2024-05-09T03:07:13.603Z,100301.66
2024-05-09T03:11:40.762Z,100304.22
2024-05-09T03:12:43.954Z,100307.66
2024-05-09T03:13:46.948Z,100292.94
2024-05-09T03:14:51.190Z,100295.44
2024-05-09T03:15:54.111Z,100299.78
2024-05-09T03:16:57.065Z,100299.97
2024-05-09T03:18:01.186Z,100290.53
2024-05-09T03:19:05.899Z,100289.81
2024-05-09T03:20:17.395Z,100293.34
2024-05-09T03:21:26.661Z,100295.22
2024-05-09T03:22:29.581Z,100286.56
2024-05-09T03:23:32.656Z,100299.56
2024-05-09T03:24:35.646Z,100304.81
2024-05-09T03:25:39.257Z,100301.22
2024-05-09T03:26:42.262Z,100295.25
2024-05-09T03:27:45.214Z,100298.78
2024-05-09T03:28:48.270Z,100303.09
2024-05-09T03:29:51.768Z,100302.31
2024-05-09T03:30:54.716Z,100303.25
2024-05-09T03:31:57.716Z,100311.97
2024-05-09T03:33:00.919Z,100304.19
2024-05-09T03:34:04.577Z,100308.50
2024-05-09T03:35:08.227Z,100309.38
2024-05-09T03:36:11.529Z,100308.53
2024-05-09T03:37:14.683Z,100310.28
2024-05-09T03:38:17.924Z,100301.53
2024-05-09T03:39:21.230Z,100310.16
2024-05-09T03:40:28.912Z,100305.91
2024-05-09T03:41:33.626Z,100309.47
2024-05-09T03:42:40.843Z,100313.00
2024-05-09T03:43:44.593Z,100303.41
2024-05-09T03:44:47.548Z,100306.91
2024-05-09T03:45:53.209Z,100309.41
2024-05-09T03:46:56.306Z,100308.41
2024-05-09T03:47:59.514Z,100301.41
2024-05-09T03:49:02.703Z,100299.63
2024-05-09T03:50:11.972Z,100292.69
2024-05-09T03:51:17.916Z,100298.00
2024-05-09T03:52:20.975Z,100299.78
2024-05-09T03:53:25.744Z,100295.44
2024-05-09T03:54:29.317Z,100299.72
2024-05-09T03:55:32.788Z,100303.03
2024-05-09T03:56:35.866Z,100292.56
2024-05-09T03:57:39.800Z,100294.31
2024-05-09T03:58:42.708Z,100296.88
2024-05-09T03:59:45.668Z,100293.28
2024-05-09T04:00:48.629Z,100287.13
2024-05-09T04:01:51.728Z,100290.53
2024-05-09T04:02:55.256Z,100291.34
2024-05-09T04:03:58.358Z,100288.72
2024-05-09T04:05:01.477Z,100280.88
2024-05-09T04:06:05.848Z,100288.75
2024-05-09T04:07:08.999Z,100286.13
2024-05-09T04:08:12.197Z,100284.31
2024-05-09T04:09:15.187Z,100287.66
2024-05-09T04:10:27.654Z,100294.56
2024-05-09T04:11:35.839Z,100292.78
2024-05-09T04:12:39.037Z,100289.22
2024-05-09T04:13:43.071Z,100293.75
2024-05-09T04:14:46.083Z,100290.06
2024-05-09T04:15:49.157Z,100288.47
2024-05-09T04:16:52.235Z,100265.38
2024-05-09T04:17:55.494Z,100274.63
2024-05-09T04:18:58.803Z,100258.81
2024-05-09T04:20:01.855Z,100255.25
2024-05-09T04:21:05.478Z,100254.44
2024-05-09T04:22:08.612Z,100263.09
2024-05-09T04:23:14.684Z,100269.69
2024-05-09T04:24:17.957Z,100264.09
2024-05-09T04:25:20.874Z,100260.06
2024-05-09T04:26:24.508Z,100271.16
2024-05-09T04:27:27.556Z,100274.66
2024-05-09T04:28:30.904Z,100279.44
2024-05-09T04:29:37.483Z,100277.03
2024-05-09T04:30:41.715Z,100281.38
2024-05-09T04:31:45.366Z,100281.09
2024-05-09T04:32:48.422Z,100278.34
2024-05-09T04:33:51.708Z,100271.13
2024-05-09T04:34:54.751Z,100280.97
2024-05-09T04:35:57.725Z,100280.88
2024-05-09T04:37:00.734Z,100289.38
2024-05-09T04:38:03.760Z,100278.09
2024-05-09T04:39:06.742Z,100287.03
2024-05-09T04:40:20.491Z,100285.56
2024-05-09T04:41:27.342Z,100289.38
2024-05-09T04:42:30.307Z,100277.81
2024-05-09T04:43:35.336Z,100277.84
2024-05-09T04:44:38.299Z,100275.50
2024-05-09T04:45:41.572Z,100273.47
2024-05-09T04:46:45.037Z,100283.06
2024-05-09T04:47:48.458Z,100278.56
2024-05-09T04:48:51.681Z,100275.50
2024-05-09T04:49:54.747Z,100281.63
2024-05-09T04:50:57.687Z,100282.13
2024-05-09T04:52:00.776Z,100281.44
2024-05-09T04:53:03.914Z,100282.44
2024-05-09T04:54:10.640Z,100284.84
2024-05-09T04:55:13.754Z,100286.69
2024-05-09T04:56:16.738Z,100279.56
2024-05-09T04:57:19.734Z,100282.22
2024-05-09T04:58:22.666Z,100285.84
2024-05-09T04:59:25.834Z,100288.59
2024-05-09T05:00:35.798Z,100286.69
2024-05-09T05:01:42.021Z,100278.34
2024-05-09T05:02:45.040Z,100285.41
2024-05-09T05:03:48.205Z,100283.44
2024-05-09T05:04:51.414Z,100268.63
2024-05-09T05:05:56.232Z,100272.81
2024-05-09T05:07:02.102Z,100277.06
2024-05-09T05:08:06.308Z,100271.72
2024-05-09T05:09:09.307Z,100282.38
2024-05-09T05:10:17.907Z,100284.81
2024-05-09T05:11:30.923Z,100285.00
2024-05-09T05:12:52.896Z,100275.66
2024-05-09T05:13:55.895Z,100277.50
2024-05-09T05:14:58.880Z,100279.88
2024-05-09T05:16:01.875Z,100280.50
2024-05-09T05:17:04.957Z,100277.00
2024-05-09T05:18:08.337Z,100280.25
2024-05-09T05:19:13.504Z,100287.63
2024-05-09T05:20:27.153Z,100278.88
2024-05-09T05:21:35.515Z,100290.13
2024-05-09T05:22:38.525Z,100284.28
2024-05-09T05:23:41.740Z,100287.28
2024-05-09T05:24:44.805Z,100283.03
2024-05-09T05:25:49.313Z,100287.41
2024-05-09T05:26:52.368Z,100291.00
2024-05-09T05:27:55.474Z,100290.63
2024-05-09T05:28:58.643Z,100293.84
2024-05-09T05:30:01.579Z,100294.56
2024-05-09T05:31:04.684Z,100289.94
2024-05-09T05:32:08.153Z,100289.88
2024-05-09T05:33:13.622Z,100287.75
2024-05-09T05:34:16.635Z,100293.63
2024-05-09T05:35:21.687Z,100283.91
2024-05-09T05:36:24.662Z,100286.47
2024-05-09T05:37:27.550Z,100289.63
2024-05-09T05:38:30.509Z,100283.00
2024-05-09T05:39:33.467Z,100288.28
2024-05-09T05:40:38.557Z,100285.81
2024-05-09T05:41:42.797Z,100291.81
2024-05-09T05:42:48.298Z,100294.47
2024-05-09T05:43:51.196Z,100293.94
2024-05-09T05:44:54.319Z,100286.66
2024-05-09T05:45:57.261Z,100286.31
2024-05-09T05:47:00.312Z,100294.22
2024-05-09T05:48:05.889Z,100299.75
2024-05-09T05:49:09.765Z,100300.25
2024-05-09T05:50:23.678Z,100299.19
2024-05-09T05:51:30.677Z,100302.59
2024-05-09T05:52:33.550Z,100300.66
2024-05-09T05:53:36.755Z,100311.91
2024-05-09T05:54:39.752Z,100312.59
2024-05-09T05:55:42.826Z,100310.75
2024-05-09T05:56:46.343Z,100311.25
2024-05-09T05:57:49.347Z,100309.59
2024-05-09T05:58:52.272Z,100309.84
2024-05-09T05:59:55.408Z,100312.91
2024-05-09T06:00:58.330Z,100302.59
2024-05-09T06:02:01.284Z,100307.91
2024-05-09T06:03:04.874Z,100303.69
2024-05-09T06:04:08.249Z,100308.56
2024-05-09T06:05:11.533Z,100302.16
2024-05-09T06:06:14.593Z,100288.75
2024-05-09T06:07:17.834Z,100299.81
2024-05-09T06:08:26.198Z,100298.31
2024-05-09T06:09:30.900Z,100294.63
2024-05-09T06:10:39.687Z,100295.53
2024-05-09T06:11:44.104Z,100301.22
2024-05-09T06:12:47.261Z,100308.81
2024-05-09T06:13:50.224Z,100297.09
2024-05-09T06:14:53.139Z,100292.94
2024-05-09T06:15:56.041Z,100299.78
2024-05-09T06:16:59.209Z,100300.56
2024-05-09T06:18:02.540Z,100296.34
2024-05-09T06:19:05.742Z,100302.13
2024-05-09T06:20:16.643Z,100304.72
2024-05-09T06:21:26.413Z,100295.19
2024-05-09T06:22:29.323Z,100291.53
2024-05-09T06:23:32.379Z,100283.56
2024-05-09T06:24:35.515Z,100294.41
2024-05-09T06:25:38.958Z,100282.50
2024-05-09T06:26:42.856Z,100297.06
2024-05-09T06:27:45.846Z,100296.88
2024-05-09T06:28:48.811Z,100296.56
2024-05-09T06:29:51.842Z,100294.41
2024-05-09T06:30:54.766Z,100292.50
2024-05-09T06:32:00.121Z,100307.09
2024-05-09T06:33:04.042Z,100294.31
2024-05-09T06:34:07.344Z,100302.34
2024-05-09T06:35:10.377Z,100298.47
2024-05-09T06:36:13.706Z,100300.06
2024-05-09T06:37:16.644Z,100292.94
2024-05-09T06:38:19.786Z,100301.22
2024-05-09T06:39:24.072Z,100297.38
2024-05-09T06:40:36.086Z,100293.41
2024-05-09T06:41:41.718Z,100296.44
2024-05-09T06:42:44.654Z,100303.84
2024-05-09T06:43:47.596Z,100306.00
2024-05-09T06:44:50.567Z,100304.47
2024-05-09T06:45:54.656Z,100300.50
2024-05-09T06:46:59.860Z,100293.16
2024-05-09T06:48:03.959Z,100292.22
2024-05-09T06:49:08.351Z,100287.53
2024-05-09T06:50:19.723Z,100292.31
2024-05-09T06:51:28.918Z,100289.81
2024-05-09T06:52:31.782Z,100292.75
2024-05-09T06:53:40.000Z,100291.56
2024-05-09T06:54:43.774Z,100302.59
2024-05-09T06:55:46.934Z,100285.53
2024-05-09T06:56:50.032Z,100294.66
2024-05-09T06:57:52.932Z,100296.16
2024-05-09T06:59:00.389Z,100289.00
2024-05-09T07:00:03.871Z,100284.38
2024-05-09T07:01:07.154Z,100295.38
2024-05-09T07:02:10.374Z,100304.69
2024-05-09T07:03:18.132Z,100300.00
2024-05-09T07:04:22.689Z,100301.59
2024-05-09T07:05:26.094Z,100312.84
2024-05-09T07:06:32.069Z,100313.59
2024-05-09T07:07:35.050Z,100312.94
2024-05-09T07:08:38.041Z,100313.88
2024-05-09T07:09:41.490Z,100307.19
2024-05-09T07:10:44.756Z,100312.47
2024-05-09T07:11:47.966Z,100314.13
2024-05-09T07:12:51.271Z,100311.38
2024-05-09T07:13:54.603Z,100305.75
2024-05-09T07:14:57.890Z,100314.34
2024-05-09T07:16:00.990Z,100308.03
2024-05-09T07:17:04.366Z,100306.50
2024-05-09T07:18:21.454Z,100318.38
2024-05-09T07:19:24.767Z,100308.03
2024-05-09T07:20:34.457Z,100311.38
2024-05-09T07:21:38.128Z,100305.09
2024-05-09T07:22:41.115Z,100312.06
2024-05-09T07:23:46.838Z,100328.63
2024-05-09T07:24:50.252Z,100324.25
2024-05-09T07:25:53.337Z,100317.53
2024-05-09T07:26:59.927Z,100318.72
2024-05-09T07:28:02.814Z,100321.59
2024-05-09T07:29:05.853Z,100320.88
2024-05-09T07:30:16.660Z,100314.53
2024-05-09T07:31:28.161Z,100317.72
2024-05-09T07:32:31.775Z,100318.56
2024-05-09T07:33:34.861Z,100322.25
2024-05-09T07:34:37.859Z,100315.41
2024-05-09T07:35:40.840Z,100321.72
2024-05-09T07:36:43.941Z,100317.84
2024-05-09T07:37:46.917Z,100319.75
2024-05-09T07:38:50.177Z,100308.72
2024-05-09T07:39:53.193Z,100313.41
2024-05-09T07:40:56.109Z,100311.66
2024-05-09T07:41:59.163Z,100312.16
2024-05-09T07:43:13.885Z,100304.44
2024-05-09T07:44:16.911Z,100306.94
2024-05-09T07:45:39.891Z,100297.47
2024-05-09T07:49:13.638Z,100301.34
2024-05-09T07:50:53.510Z,100296.28
2024-05-09T07:52:32.579Z,100295.41
2024-05-09T07:53:36.553Z,100288.59
2024-05-09T07:54:29.356Z,100290.94
2024-05-09T07:55:32.808Z,100292.97
2024-05-09T07:56:36.193Z,100300.44
2024-05-09T07:57:39.371Z,100288.06
2024-05-09T07:58:46.125Z,100293.53
2024-05-09T07:59:49.056Z,100291.31
2024-05-09T08:00:52.080Z,100299.69
2024-05-09T08:01:55.269Z,100293.22
2024-05-09T08:02:58.414Z,100288.63
2024-05-09T08:04:01.756Z,100290.47
2024-05-09T08:05:05.110Z,100295.63
2024-05-09T08:06:08.144Z,100277.53
2024-05-09T08:07:13.591Z,100282.44
2024-05-09T08:08:16.903Z,100277.66
2024-05-09T08:09:21.376Z,100284.53
2024-05-09T08:10:28.747Z,100280.81
2024-05-09T08:11:33.657Z,100279.50
2024-05-09T08:12:36.690Z,100280.09
2024-05-09T08:13:39.606Z,100277.06
2024-05-09T08:14:42.552Z,100280.94
2024-05-09T08:15:45.528Z,100269.75
2024-05-09T08:16:48.577Z,100276.31
2024-05-09T08:17:51.653Z,100272.84
2024-05-09T08:18:54.914Z,100263.41
2024-05-09T08:19:57.879Z,100275.31
2024-05-09T08:21:00.896Z,100276.97
2024-05-09T08:22:07.048Z,100269.25
2024-05-09T08:23:11.661Z,100268.88
2024-05-09T08:24:14.703Z,100271.06
2024-05-09T08:25:17.853Z,100269.44
2024-05-09T08:26:20.943Z,100261.00
2024-05-09T08:27:26.348Z,100270.09
2024-05-09T08:28:29.378Z,100269.66
2024-05-09T08:29:32.763Z,100266.69
2024-05-09T08:30:38.113Z,100268.50
2024-05-09T08:31:41.719Z,100273.84
2024-05-09T08:32:47.897Z,100269.81
2024-05-09T08:33:51.778Z,100270.53
2024-05-09T08:34:54.950Z,100252.78
2024-05-09T08:35:59.399Z,100268.56
2024-05-09T08:37:10.094Z,100278.31
2024-05-09T08:38:18.476Z,100265.25
2024-05-09T08:39:21.361Z,100268.56
2024-05-09T08:40:31.057Z,100263.78
2024-05-09T08:41:42.697Z,100261.41
2024-05-09T08:42:49.924Z,100261.03
2024-05-09T08:43:52.937Z,100257.53
2024-05-09T08:44:55.830Z,100259.66
2024-05-09T08:45:59.850Z,100262.09
2024-05-09T08:47:08.495Z,100260.47
2024-05-09T08:48:15.135Z,100269.75
2024-05-09T08:49:19.336Z,100256.53
2024-05-09T08:50:31.935Z,100259.66
2024-05-09T08:51:41.288Z,100266.94
2024-05-09T08:52:44.734Z,100260.94
2024-05-09T08:53:47.704Z,100265.72
2024-05-09T08:54:50.767Z,100250.50
2024-05-09T08:55:55.862Z,100262.47
2024-05-09T08:56:59.727Z,100262.03
2024-05-09T08:58:04.573Z,100262.06
2024-05-09T08:59:09.888Z,100261.97
2024-05-09T09:00:18.142Z,100268.81
2024-05-09T09:01:38.133Z,100262.00
2024-05-09T09:02:44.710Z,100254.25
2024-05-09T09:03:49.091Z,100252.31
2024-05-09T09:05:00.126Z,100260.91
2024-05-09T09:06:07.763Z,100259.72
2024-05-09T09:07:11.440Z,100257.50
2024-05-09T09:08:16.236Z,100254.25
2024-05-09T09:09:19.273Z,100267.41
2024-05-09T09:10:29.792Z,100258.47
2024-05-09T09:11:35.194Z,100259.94
2024-05-09T09:12:38.228Z,100251.44
2024-05-09T09:13:43.753Z,100257.88
2024-05-09T09:14:46.827Z,100261.03
2024-05-09T09:15:50.847Z,100268.28
2024-05-09T09:16:55.488Z,100261.88
2024-05-09T09:17:59.221Z,100262.34
2024-05-09T09:19:05.245Z,100261.63
2024-05-09T09:20:14.212Z,100261.47
2024-05-09T09:21:19.613Z,100259.84
2024-05-09T09:22:22.509Z,100250.88
2024-05-09T09:23:30.356Z,100256.50
2024-05-09T09:24:33.537Z,100258.44
2024-05-09T09:25:39.788Z,100251.44
2024-05-09T09:26:47.728Z,100253.13
2024-05-09T09:27:50.723Z,100257.31
2024-05-09T09:28:53.862Z,100256.84
2024-05-09T09:29:57.324Z,100253.69
2024-05-09T09:31:04.099Z,100255.56
2024-05-09T09:32:11.246Z,100257.47
2024-05-09T09:33:14.405Z,100257.06
2024-05-09T09:34:18.372Z,100255.75
2024-05-09T09:35:21.458Z,100252.84
2024-05-09T09:36:29.561Z,100270.03
2024-05-09T09:37:32.986Z,100262.34
2024-05-09T09:38:37.870Z,100259.56
2024-05-09T09:39:42.208Z,100253.47
2024-05-09T09:40:49.713Z,100250.59
2024-05-09T09:41:55.013Z,100252.63
2024-05-09T09:42:58.491Z,100253.91
2024-05-09T09:44:02.779Z,100247.38
2024-05-09T09:45:06.762Z,100242.69
2024-05-09T09:46:12.593Z,100251.22
2024-05-09T09:47:19.195Z,100242.44
2024-05-09T09:48:23.214Z,100241.81
2024-05-09T09:49:27.637Z,100251.41
2024-05-09T09:50:34.491Z,100246.78
2024-05-09T09:51:43.592Z,100237.94
2024-05-09T09:52:47.881Z,100240.81
2024-05-09T09:53:53.319Z,100251.44
2024-05-09T09:54:57.875Z,100245.41
2024-05-09T09:56:02.620Z,100234.34
2024-05-09T09:57:07.669Z,100250.25
2024-05-09T09:58:13.912Z,100241.91
2024-05-09T09:59:17.599Z,100234.56
2024-05-09T10:00:27.258Z,100235.84
2024-05-09T10:01:36.453Z,100246.09
2024-05-09T10:02:40.613Z,100247.56
2024-05-09T10:03:48.316Z,100244.75
2024-05-09T10:04:51.697Z,100241.91
2024-05-09T10:05:55.428Z,100241.09
2024-05-09T10:07:05.009Z,100256.59
2024-05-09T10:08:13.225Z,100230.72
2024-05-09T10:09:18.215Z,100235.75
2024-05-09T10:10:32.171Z,100228.22
2024-05-09T10:11:45.022Z,100233.97
2024-05-09T10:13:04.652Z,100226.50
2024-05-09T10:14:07.960Z,100235.50
2024-05-09T10:15:11.335Z,100229.22
2024-05-09T10:16:23.095Z,100244.66
2024-05-09T10:17:26.186Z,100235.47
2024-05-09T10:18:37.439Z,100233.81
2024-05-09T10:19:40.614Z,100226.84
2024-05-09T10:20:49.271Z,100230.09
2024-05-09T10:21:52.513Z,100255.38
2024-05-09T10:22:56.503Z,100243.41
2024-05-09T10:24:02.474Z,100234.78
2024-05-09T10:25:07.946Z,100226.28
2024-05-09T10:26:11.012Z,100228.47
2024-05-09T10:27:13.971Z,100217.69
2024-05-09T10:28:17.372Z,100226.44
2024-05-09T10:29:20.963Z,100227.28
2024-05-09T10:31:30.409Z,100217.78
2024-05-09T10:32:41.314Z,100220.63
2024-05-09T10:33:52.430Z,100208.75
2024-05-09T10:35:06.455Z,100206.56
2024-05-09T10:36:19.078Z,100205.94
2024-05-09T10:37:22.554Z,100207.38
2024-05-09T10:38:25.625Z,100210.72
2024-05-09T10:39:39.002Z,100204.09
2024-05-09T10:40:43.018Z,100210.63
2024-05-09T10:41:46.099Z,100207.38
2024-05-09T10:42:52.035Z,100201.56
2024-05-09T10:43:55.317Z,100200.03
2024-05-09T10:44:59.931Z,100195.25
2024-05-09T10:46:03.010Z,100203.56
2024-05-09T10:47:06.127Z,100204.03
2024-05-09T10:48:09.489Z,100213.28
2024-05-09T10:49:15.514Z,100204.97
2024-05-09T10:50:25.535Z,100208.03
2024-05-09T10:51:31.916Z,100198.78
2024-05-09T10:52:35.107Z,100203.16
2024-05-09T10:53:45.386Z,100212.75
2024-05-09T10:54:54.862Z,100189.84
2024-05-09T10:56:00.183Z,100199.44
2024-05-09T10:57:03.455Z,100194.19
2024-05-09T10:58:17.448Z,100190.03
2024-05-09T10:59:20.459Z,100196.50
2024-05-09T11:00:30.250Z,100192.44
2024-05-09T11:01:37.413Z,100191.59
2024-05-09T11:02:40.561Z,100185.44
2024-05-09T11:03:52.518Z,100182.50
2024-05-09T11:04:58.047Z,100177.84
2024-05-09T11:06:01.631Z,100186.53
2024-05-09T11:07:12.676Z,100187.53
2024-05-09T11:08:16.523Z,100182.31
2024-05-09T11:09:19.808Z,100180.50
2024-05-09T11:10:27.829Z,100178.69
2024-05-09T11:11:36.935Z,100177.94
2024-05-09T11:12:39.919Z,100183.19
2024-05-09T11:13:42.838Z,100190.72
2024-05-09T11:14:55.337Z,100184.34
2024-05-09T11:15:58.434Z,100186.44
2024-05-09T11:17:05.631Z,100179.00
2024-05-09T11:18:09.101Z,100173.75
2024-05-09T11:19:14.132Z,100184.31
2024-05-09T11:20:23.250Z,100179.19
2024-05-09T11:21:32.493Z,100174.81
2024-05-09T11:22:35.457Z,100171.75
2024-05-09T11:23:38.588Z,100179.38
2024-05-09T11:24:41.666Z,100175.84
2024-05-09T11:26:15.374Z,100184.00
2024-05-09T11:27:21.283Z,100171.50
2024-05-09T11:28:24.530Z,100181.03
2024-05-09T11:29:44.812Z,100176.41
2024-05-09T11:30:48.958Z,100182.50
2024-05-09T11:31:52.080Z,100175.84
2024-05-09T11:32:55.593Z,100168.81
2024-05-09T11:34:00.786Z,100162.34
2024-05-09T11:35:03.744Z,100155.41
2024-05-09T11:36:07.732Z,100156.69
2024-05-09T11:37:11.236Z,100164.91
2024-05-09T11:38:14.452Z,100163.50
2024-05-09T11:39:17.639Z,100153.56
2024-05-09T11:40:25.605Z,100174.91
2024-05-09T11:41:35.968Z,100164.06
2024-05-09T11:42:39.587Z,100161.97
2024-05-09T11:43:45.478Z,100163.53
2024-05-09T11:44:48.477Z,100165.34
2024-05-09T11:45:51.640Z,100158.38
2024-05-09T11:46:58.911Z,100155.53
2024-05-09T11:48:02.022Z,100154.88
2024-05-09T11:49:05.371Z,100144.84
2024-05-09T11:50:13.107Z,100159.22
2024-05-09T11:51:22.310Z,100149.59
2024-05-09T11:52:27.821Z,100155.84
2024-05-09T11:53:30.766Z,100153.41
2024-05-09T11:54:34.009Z,100163.59
2024-05-09T11:55:38.140Z,100162.00
2024-05-09T11:56:41.192Z,100154.59
2024-05-09T11:57:44.131Z,100144.13
2024-05-09T11:58:47.268Z,100145.44
2024-05-09T11:59:50.360Z,100149.56
2024-05-09T12:00:53.487Z,100146.75
2024-05-09T12:02:02.579Z,100146.03
2024-05-09T12:03:06.268Z,100150.03
2024-05-09T12:04:09.891Z,100144.09
2024-05-09T12:05:13.690Z,100133.72
2024-05-09T12:06:17.002Z,100129.59
2024-05-09T12:07:21.128Z,100121.19
2024-05-09T12:08:24.176Z,100128.44
2024-05-09T12:09:30.158Z,100118.81
2024-05-09T12:10:35.529Z,100133.91
2024-05-09T12:11:39.805Z,100130.28
2024-05-09T12:12:43.072Z,100135.91
2024-05-09T12:13:45.984Z,100123.72
2024-05-09T12:14:48.964Z,100123.78
2024-05-09T12:15:51.996Z,100131.06
2024-05-09T12:16:54.998Z,100123.44
2024-05-09T12:18:00.227Z,100122.44
2024-05-09T12:19:05.872Z,100121.88
2024-05-09T12:20:14.262Z,100118.84
2024-05-09T12:21:26.416Z,100116.50
2024-05-09T12:22:29.387Z,100111.66
2024-05-09T12:23:32.334Z,100110.38
2024-05-09T12:24:35.309Z,100115.78
2024-05-09T12:25:39.911Z,100112.56
2024-05-09T12:26:45.935Z,100117.41
2024-05-09T12:27:48.967Z,100122.72
2024-05-09T12:28:52.065Z,100120.22